Time;durP1;ratioP1;P1;durP2;ratioP2;P2;SDS_P1;SDS_P2;PMS_P1;PMS_P2;Temp;Humidity;BMP_temperature;BMP_pressure;BME280_temperature;BME280_humidity;BME280_pressure;Samples;Min_cycle;Max_cycle;Signal;HPM_P1;HPM_P2
2022/03/31 00:00:17;;;;;;;;;49.75;38.75;;;;;12.67;56.35;99632.34;4962055;28;45565;-69
2022/03/31 00:02:42;;;;;;;;;41.00;36.00;;;;;12.57;56.21;99628.47;4979933;28;45222;-70
2022/03/31 00:05:08;;;;;;;;;39.25;36.50;;;;;12.57;56.71;99629.34;4981554;28;45232;-70
2022/03/31 00:07:33;;;;;;;;;40.50;34.75;;;;;12.62;56.99;99631.75;4980818;28;45439;-69
2022/03/31 00:09:59;;;;;;;;;40.75;35.00;;;;;12.58;56.56;99636.44;4980602;28;45399;-70
2022/03/31 00:12:25;;;;;;;;;49.25;38.75;;;;;12.54;56.76;99624.16;4980969;28;45328;-70
2022/03/31 00:14:50;;;;;;;;;36.00;32.25;;;;;12.56;56.20;99630.31;4981224;28;45155;-70
2022/03/31 00:17:16;;;;;;;;;42.75;35.00;;;;;12.58;56.64;99628.41;4980930;28;45388;-70
2022/03/31 00:19:41;;;;;;;;;36.50;33.00;;;;;12.57;56.55;99620.44;4980111;28;46136;-69
2022/03/31 00:22:07;;;;;;;;;39.75;35.25;;;;;12.59;56.29;99630.09;4966623;28;45623;-70
2022/03/31 00:24:32;;;;;;;;;36.00;30.25;;;;;12.54;56.34;99621.47;4974859;28;45283;-70
2022/03/31 00:26:57;;;;;;;;;37.75;32.50;;;;;12.60;55.96;99629.16;4981107;28;45364;-69
2022/03/31 00:29:23;;;;;;;;;35.25;32.25;;;;;12.55;56.24;99617.00;4980090;28;46280;-70
2022/03/31 00:31:48;;;;;;;;;29.00;28.00;;;;;12.52;56.10;99611.81;4980734;28;45288;-70
2022/03/31 00:34:14;;;;;;;;;33.00;28.75;;;;;12.51;55.84;99607.41;4978951;28;45253;-70
2022/03/31 00:36:39;;;;;;;;;36.25;31.00;;;;;12.48;55.68;99605.78;4977277;28;45643;-70
2022/03/31 00:41:49;;;;;;;;;39.25;34.50;;;;;12.51;55.26;99602.06;4978283;28;46378;-70
2022/03/31 00:44:14;;;;;;;;;36.75;34.00;;;;;12.45;55.77;99605.97;4980962;28;45440;-70
2022/03/31 00:46:51;;;;;;;;;38.50;32.75;;;;;12.45;55.19;99600.63;4979667;28;45463;-70
2022/03/31 00:49:19;;;;;;;;;37.00;32.00;;;;;12.43;55.30;99594.50;4980835;28;45518;-70
2022/03/31 00:51:45;;;;;;;;;44.50;35.75;;;;;12.40;55.14;99602.72;4980338;28;45174;-70
2022/03/31 00:54:12;;;;;;;;;35.75;33.00;;;;;12.34;55.50;99590.53;4977378;28;45275;-70
2022/03/31 00:56:38;;;;;;;;;32.00;27.75;;;;;12.34;55.44;99595.03;4977763;28;45320;-70
2022/03/31 00:59:06;;;;;;;;;25.50;24.75;;;;;12.31;54.73;99596.06;4970018;28;45407;-69
2022/03/31 01:01:37;;;;;;;;;27.00;26.50;;;;;12.25;55.44;99592.91;4979465;28;45779;-70
2022/03/31 01:04:04;;;;;;;;;35.25;32.75;;;;;12.26;55.50;99583.91;4980568;28;45265;-69
2022/03/31 01:06:29;;;;;;;;;25.00;20.50;;;;;12.26;55.12;99584.75;4979130;28;45308;-70
2022/03/31 01:08:55;;;;;;;;;35.25;30.75;;;;;12.28;54.80;99582.00;4968510;28;45896;-70
2022/03/31 01:11:21;;;;;;;;;34.25;31.50;;;;;12.26;54.74;99575.88;4980307;28;45262;-69
2022/03/31 01:13:47;;;;;;;;;28.00;26.50;;;;;12.21;54.81;99579.69;4966753;28;45378;-70
2022/03/31 01:16:12;;;;;;;;;36.00;30.25;;;;;12.16;54.61;99575.53;4980198;28;45381;-70
2022/03/31 01:18:37;;;;;;;;;36.25;29.25;;;;;12.14;54.38;99564.91;4978992;28;45356;-70
2022/03/31 01:21:03;;;;;;;;;34.25;31.00;;;;;12.17;54.88;99572.78;4980244;28;45253;-69
2022/03/31 01:23:28;;;;;;;;;33.75;29.25;;;;;12.20;54.90;99572.59;4979917;28;45411;-69
2022/03/31 01:25:54;;;;;;;;;31.25;31.00;;;;;12.25;55.49;99574.16;4978266;28;45235;-69
2022/03/31 01:28:19;;;;;;;;;28.75;27.75;;;;;12.23;55.32;99569.75;4978911;28;46269;-69
2022/03/31 01:30:45;;;;;;;;;36.00;33.00;;;;;12.17;54.77;99564.75;4979184;28;45372;-69
2022/03/31 01:33:11;;;;;;;;;31.50;30.50;;;;;12.13;55.03;99565.00;4980231;28;45300;-69
2022/03/31 01:35:37;;;;;;;;;37.75;31.00;;;;;12.15;55.02;99563.97;4974988;28;45248;-70
2022/03/31 01:38:02;;;;;;;;;30.00;25.00;;;;;12.17;55.23;99561.22;4979284;28;45422;-70
2022/03/31 01:40:28;;;;;;;;;32.25;30.25;;;;;12.17;55.35;99562.06;4980105;28;46658;-69
2022/03/31 01:42:54;;;;;;;;;38.25;31.75;;;;;12.14;55.05;99554.22;4978825;28;45411;-69
2022/03/31 01:45:19;;;;;;;;;37.00;32.50;;;;;12.11;55.08;99553.53;4978804;28;45374;-70
2022/03/31 01:47:45;;;;;;;;;31.50;31.25;;;;;12.11;54.97;99557.09;4978701;28;45510;-69
2022/03/31 01:50:11;;;;;;;;;29.00;28.00;;;;;12.13;55.06;99552.50;4969346;28;45576;-69
2022/03/31 01:52:38;;;;;;;;;39.75;32.25;;;;;12.16;55.13;99547.00;4964683;28;45498;-69
2022/03/31 01:55:04;;;;;;;;;34.25;29.75;;;;;12.19;55.03;99549.47;4978284;28;45396;-70
2022/03/31 01:57:30;;;;;;;;;35.50;30.75;;;;;12.21;54.83;99539.56;4982349;28;47007;-70
2022/03/31 01:59:55;;;;;;;;;33.00;30.75;;;;;12.21;54.87;99533.31;4982255;28;45310;-70
2022/03/31 02:02:22;;;;;;;;;34.25;29.75;;;;;12.24;54.83;99527.81;4983346;28;45154;-69
2022/03/31 02:04:48;;;;;;;;;34.25;32.50;;;;;12.29;55.50;99527.53;4976862;28;45356;-70
2022/03/31 02:07:14;;;;;;;;;39.50;32.25;;;;;12.26;55.07;99535.75;4988265;28;46974;-69
2022/03/31 02:09:40;;;;;;;;;39.50;33.00;;;;;12.26;55.34;99525.88;4994982;28;45322;-69
2022/03/31 02:12:06;;;;;;;;;42.25;33.25;;;;;12.26;55.24;99531.25;4977380;28;45295;-70
2022/03/31 02:14:37;;;;;;;;;35.50;33.50;;;;;12.22;55.01;99524.34;4982490;28;45235;-69
2022/03/31 02:17:09;;;;;;;;;41.00;33.75;;;;;12.26;55.22;99531.25;4984564;28;46876;-69
2022/03/31 02:19:35;;;;;;;;;35.75;32.00;;;;;12.19;55.25;99517.34;4978553;28;45818;-70
2022/03/31 02:22:01;;;;;;;;;41.75;35.25;;;;;12.22;55.49;99521.69;4977928;28;45542;-70
2022/03/31 02:24:27;;;;;;;;;39.75;34.50;;;;;12.23;55.18;99523.41;4981876;28;45278;-69
2022/03/31 02:26:52;;;;;;;;;42.25;35.75;;;;;12.21;55.61;99525.28;4982719;28;45354;-69
2022/03/31 02:29:19;;;;;;;;;40.75;35.25;;;;;12.26;55.46;99528.56;4982529;28;45374;-70
2022/03/31 02:31:46;;;;;;;;;46.50;35.00;;;;;12.23;55.31;99524.28;4982191;28;45588;-70
2022/03/31 02:34:12;;;;;;;;;38.25;34.00;;;;;12.21;55.54;99528.84;4980005;28;45550;-69
2022/03/31 02:36:38;;;;;;;;;47.50;37.75;;;;;12.18;55.16;99517.47;4976768;28;45354;-69
2022/03/31 02:39:03;;;;;;;;;44.50;38.00;;;;;12.21;55.59;99528.84;4971144;28;45265;-69
2022/03/31 02:41:29;;;;;;;;;48.75;39.25;;;;;12.16;55.77;99525.59;4981487;28;45316;-70
2022/03/31 02:43:54;;;;;;;;;48.50;39.75;;;;;12.16;55.73;99530.06;4970871;28;45473;-70
2022/03/31 02:46:20;;;;;;;;;54.00;42.25;;;;;12.16;55.60;99532.72;4982360;28;45594;-69
2022/03/31 02:48:45;;;;;;;;;45.50;37.50;;;;;12.12;55.52;99536.56;4982600;28;45340;-70
2022/03/31 02:51:10;;;;;;;;;49.75;42.00;;;;;12.10;55.90;99535.78;4982334;28;45404;-69
2022/03/31 02:56:20;;;;;;;;;52.00;42.00;;;;;12.03;55.74;99532.59;4979350;28;45769;-69
2022/03/31 02:58:45;;;;;;;;;53.00;43.00;;;;;11.87;56.04;99522.72;4982343;28;45261;-69
2022/03/31 03:01:11;;;;;;;;;51.50;40.75;;;;;11.91;55.88;99530.59;4971021;28;45188;-70
2022/03/31 03:03:36;;;;;;;;;48.00;37.75;;;;;11.96;55.83;99532.09;4977801;28;45278;-69
2022/03/31 03:06:02;;;;;;;;;50.00;41.00;;;;;11.86;55.89;99523.69;4996144;28;46398;-70
2022/03/31 03:08:28;;;;;;;;;51.25;41.75;;;;;11.84;56.19;99519.38;4981979;28;45751;-69
2022/03/31 03:10:54;;;;;;;;;55.00;44.00;;;;;11.89;55.86;99519.97;4966064;28;45488;-69
2022/03/31 03:13:20;;;;;;;;;53.75;42.50;;;;;11.81;56.25;99507.06;4973896;28;45654;-70
2022/03/31 03:15:46;;;;;;;;;58.25;45.25;;;;;11.84;56.24;99504.22;4981979;28;46008;-69
2022/03/31 03:18:13;;;;;;;;;50.00;41.25;;;;;11.88;56.10;99515.59;4982746;28;45392;-69
2022/03/31 03:20:38;;;;;;;;;51.25;41.00;;;;;11.90;56.13;99507.47;4963026;28;45374;-69
2022/03/31 03:23:04;;;;;;;;;49.50;41.25;;;;;11.87;56.04;99509.38;4976667;28;45507;-69
2022/03/31 03:25:29;;;;;;;;;52.75;43.00;;;;;11.86;56.21;99496.06;4979042;28;45313;-69
2022/03/31 03:27:55;;;;;;;;;54.50;42.75;;;;;11.82;55.79;99491.88;4981713;28;45516;-69
2022/03/31 03:30:21;;;;;;;;;49.75;40.00;;;;;11.90;56.07;99499.47;4981050;28;45484;-69
2022/03/31 03:32:47;;;;;;;;;48.00;40.50;;;;;11.89;56.25;99493.22;4973110;28;45403;-69
2022/03/31 03:35:14;;;;;;;;;45.50;37.00;;;;;11.91;56.09;99488.72;4979823;28;46167;-69
2022/03/31 03:37:42;;;;;;;;;48.00;40.50;;;;;11.88;56.01;99483.50;4981157;28;45320;-69
2022/03/31 03:40:11;;;;;;;;;59.00;46.50;;;;;11.91;56.53;99493.16;4969129;28;45213;-69
2022/03/31 03:42:39;;;;;;;;;55.00;44.75;;;;;11.89;56.02;99490.56;4981639;28;45483;-69
2022/03/31 03:45:07;;;;;;;;;54.25;42.25;;;;;11.87;56.15;99473.75;4980937;28;45272;-69
2022/03/31 03:47:32;;;;;;;;;52.75;41.25;;;;;11.87;55.87;99479.09;4981508;28;45305;-69
2022/03/31 03:49:58;;;;;;;;;54.25;44.00;;;;;11.86;55.92;99486.25;4980851;28;45276;-69
2022/03/31 03:52:24;;;;;;;;;51.25;42.00;;;;;11.91;55.95;99490.47;4979480;28;45312;-69
2022/03/31 03:54:50;;;;;;;;;43.75;39.25;;;;;11.90;55.73;99494.13;4977501;28;46482;-69
2022/03/31 03:57:15;;;;;;;;;44.75;40.00;;;;;11.86;55.95;99485.38;4981186;28;45297;-69
2022/03/31 03:59:41;;;;;;;;;53.25;42.75;;;;;11.87;55.77;99487.97;4981351;28;45218;-69
2022/03/31 04:02:06;;;;;;;;;55.00;43.00;;;;;11.85;55.94;99500.56;4980573;28;45571;-69
2022/03/31 04:04:32;;;;;;;;;54.25;43.00;;;;;11.79;56.20;99495.56;4981354;28;46235;-69
2022/03/31 04:06:58;;;;;;;;;54.00;43.00;;;;;11.86;56.02;99509.44;4967889;28;45452;-69
2022/03/31 04:09:24;;;;;;;;;51.00;42.00;;;;;11.84;56.08;99498.88;4981442;28;45450;-69
2022/03/31 04:11:51;;;;;;;;;50.00;41.75;;;;;11.82;55.54;99505.25;4979234;28;45493;-69
2022/03/31 04:14:17;;;;;;;;;59.00;48.75;;;;;11.79;55.02;99508.09;4962912;28;46255;-69
2022/03/31 04:16:43;;;;;;;;;58.00;44.00;;;;;11.74;55.81;99494.97;4980968;28;45705;-70
2022/03/31 04:19:08;;;;;;;;;54.00;43.75;;;;;11.75;55.46;99501.19;4981123;28;45330;-69
2022/03/31 04:21:35;;;;;;;;;53.75;42.25;;;;;11.73;55.80;99503.06;4980067;28;45539;-69
2022/03/31 04:24:01;;;;;;;;;51.75;40.50;;;;;11.72;55.58;99499.56;4980819;28;46311;-69
2022/03/31 04:26:27;;;;;;;;;51.25;41.50;;;;;11.65;54.86;99493.69;4974630;28;45691;-69
2022/03/31 04:28:52;;;;;;;;;53.50;42.50;;;;;11.68;54.88;99501.53;4976323;28;45437;-69
2022/03/31 04:31:17;;;;;;;;;52.25;41.00;;;;;11.59;55.24;99498.53;4972444;28;45352;-69
2022/03/31 04:33:43;;;;;;;;;45.50;39.00;;;;;11.66;54.81;99511.47;4969880;28;46117;-69
2022/03/31 04:36:08;;;;;;;;;49.50;41.50;;;;;11.68;54.80;99511.38;4980156;28;45416;-69
2022/03/31 04:38:33;;;;;;;;;50.50;40.25;;;;;11.62;55.13;99512.56;4975652;28;45576;-69
2022/03/31 04:40:59;;;;;;;;;51.50;39.75;;;;;11.61;54.83;99516.22;4978069;28;45329;-69
2022/03/31 04:43:24;;;;;;;;;48.00;39.25;;;;;11.61;55.34;99515.31;4980764;28;45402;-69
2022/03/31 04:45:49;;;;;;;;;48.00;40.50;;;;;11.51;55.20;99501.66;4980088;28;45351;-69
2022/03/31 04:48:15;;;;;;;;;49.50;39.00;;;;;11.61;55.10;99510.88;4980770;28;45269;-69
2022/03/31 04:50:40;;;;;;;;;46.00;39.00;;;;;11.59;55.25;99503.88;4980593;28;45427;-69
2022/03/31 04:53:06;;;;;;;;;53.00;42.75;;;;;11.64;55.00;99513.38;4980264;28;45803;-69
2022/03/31 04:55:32;;;;;;;;;53.75;41.75;;;;;11.61;54.99;99504.63;4978157;28;45379;-69
2022/03/31 04:57:57;;;;;;;;;49.25;39.00;;;;;11.60;54.66;99508.28;4968514;28;45471;-69
2022/03/31 05:00:23;;;;;;;;;69.75;54.25;;;;;11.61;54.55;99502.84;4980478;28;45377;-69
2022/03/31 05:02:48;;;;;;;;;51.75;43.25;;;;;11.61;54.79;99494.81;4980538;28;45300;-69
2022/03/31 05:05:14;;;;;;;;;54.50;41.50;;;;;11.66;54.58;99499.88;4980406;28;45290;-69
2022/03/31 05:07:39;;;;;;;;;46.00;36.25;;;;;11.61;54.98;99493.94;4976091;28;45252;-69
2022/03/31 05:10:05;;;;;;;;;48.75;40.75;;;;;11.64;54.70;99504.47;4980419;28;45379;-70
2022/03/31 05:12:31;;;;;;;;;50.75;40.25;;;;;11.57;54.90;99501.28;4980150;28;47780;-69
2022/03/31 05:14:56;;;;;;;;;50.25;40.75;;;;;11.54;54.82;99512.13;4979285;28;45384;-70
2022/03/31 05:17:22;;;;;;;;;54.00;42.25;;;;;11.49;54.78;99508.88;4980553;28;45298;-70
2022/03/31 05:19:47;;;;;;;;;52.25;42.25;;;;;11.43;54.95;99511.91;4979943;28;45341;-70
2022/03/31 05:22:13;;;;;;;;;57.75;44.00;;;;;11.48;54.85;99520.53;4979726;28;46298;-70
2022/03/31 05:24:38;;;;;;;;;52.50;42.50;;;;;11.47;54.52;99516.97;4980393;28;45258;-69
2022/03/31 05:27:04;;;;;;;;;60.00;46.50;;;;;11.41;54.79;99520.00;4983024;28;45357;-69
2022/03/31 05:29:29;;;;;;;;;44.75;38.75;;;;;11.41;54.75;99520.00;4983533;28;45335;-69
2022/03/31 05:31:57;;;;;;;;;48.75;39.75;;;;;11.44;54.47;99516.28;4977528;28;45383;-69
2022/03/31 05:34:23;;;;;;;;;52.25;40.50;;;;;11.46;54.70;99528.63;4983232;28;45349;-69
2022/03/31 05:36:48;;;;;;;;;54.00;42.50;;;;;11.44;54.78;99518.94;4973490;28;45204;-69
2022/03/31 05:39:14;;;;;;;;;50.00;42.25;;;;;11.38;54.55;99513.97;4979004;28;45511;-69
2022/03/31 05:41:39;;;;;;;;;52.75;42.50;;;;;11.37;54.67;99521.09;4983227;28;46141;-69
2022/03/31 05:44:05;;;;;;;;;56.50;42.50;;;;;11.36;54.66;99530.06;4983383;28;45376;-69
2022/03/31 05:46:30;;;;;;;;;53.00;42.50;;;;;11.28;55.02;99530.47;4975737;28;45216;-79
2022/03/31 05:48:56;;;;;;;;;55.50;43.50;;;;;11.35;55.06;99532.84;4981015;28;45473;-81
2022/03/31 05:51:21;;;;;;;;;52.00;41.75;;;;;11.33;54.79;99535.59;4981525;28;46070;-80
2022/03/31 05:53:47;;;;;;;;;52.25;42.25;;;;;11.40;54.78;99544.97;4981812;28;45314;-80
2022/03/31 05:56:12;;;;;;;;;62.00;49.00;;;;;11.35;54.56;99541.69;4981760;28;45545;-81
2022/03/31 05:58:38;;;;;;;;;59.00;46.00;;;;;11.31;54.68;99541.00;4983021;28;46723;-81
2022/03/31 06:01:04;;;;;;;;;52.50;44.75;;;;;11.32;55.10;99552.53;4983143;28;46121;-81
2022/03/31 06:03:30;;;;;;;;;58.50;48.25;;;;;11.22;55.33;99540.63;4983119;28;45840;-81
2022/03/31 06:05:55;;;;;;;;;59.00;46.25;;;;;11.29;55.35;99556.25;4983345;28;45840;-81
2022/03/31 06:08:21;;;;;;;;;56.50;45.00;;;;;11.10;54.96;99529.66;4981836;28;45893;-81
2022/03/31 06:10:47;;;;;;;;;57.50;45.75;;;;;11.16;55.71;99551.66;4982860;28;45446;-80
2022/03/31 06:13:13;;;;;;;;;58.50;48.00;;;;;11.17;55.27;99559.56;4982584;28;45323;-78
2022/03/31 06:15:39;;;;;;;;;63.25;51.50;;;;;11.06;55.61;99559.28;4982329;28;45409;-78
2022/03/31 06:18:06;;;;;;;;;63.25;48.75;;;;;10.92;55.93;99546.69;4969080;28;45380;-69
2022/03/31 06:20:34;;;;;;;;;62.50;49.00;;;;;10.97;56.05;99560.63;4974718;28;47241;-69
2022/03/31 06:23:00;;;;;;;;;69.50;52.00;;;;;11.05;56.00;99568.25;4982535;28;45376;-69
2022/03/31 06:25:25;;;;;;;;;72.00;54.00;;;;;11.03;56.17;99568.34;4978890;28;45431;-68
2022/03/31 06:27:50;;;;;;;;;71.00;53.00;;;;;10.93;56.38;99556.41;4979030;28;45329;-69
2022/03/31 06:30:16;;;;;;;;;71.00;55.75;;;;;10.97;55.77;99574.00;4973106;28;46097;-68
2022/03/31 06:32:43;;;;;;;;;64.75;52.25;;;;;10.93;56.55;99580.44;4977567;28;45861;-69
2022/03/31 06:35:14;;;;;;;;;66.25;51.50;;;;;10.94;56.17;99587.50;4981470;28;45314;-68
2022/03/31 06:37:46;;;;;;;;;65.75;50.25;;;;;10.98;56.40;99585.56;4981307;28;45374;-69
2022/03/31 06:40:14;;;;;;;;;66.75;53.00;;;;;10.90;56.50;99588.63;4982276;28;46320;-69
2022/03/31 06:42:44;;;;;;;;;69.00;54.50;;;;;10.91;56.35;99591.22;4976264;28;45878;-68
2022/03/31 06:45:12;;;;;;;;;68.50;52.25;;;;;10.83;56.16;99581.88;4980133;28;45557;-68
2022/03/31 06:47:41;;;;;;;;;70.00;55.75;;;;;10.73;56.24;99576.16;4972877;28;45420;-68
2022/03/31 06:50:07;;;;;;;;;64.00;52.00;;;;;10.72;56.41;99571.75;4982224;28;46154;-68
2022/03/31 06:52:33;;;;;;;;;65.25;51.50;;;;;10.74;56.76;99578.75;4985815;28;45322;-68
2022/03/31 06:54:58;;;;;;;;;64.25;50.00;;;;;10.72;56.70;99571.75;4982274;28;45398;-68
2022/03/31 06:57:23;;;;;;;;;68.00;52.00;;;;;10.75;56.90;99579.59;4981656;28;45519;-68
2022/03/31 06:59:49;;;;;;;;;65.75;52.50;;;;;10.78;56.85;99578.59;4979303;28;46331;-68
2022/03/31 07:02:15;;;;;;;;;67.00;52.00;;;;;10.74;56.75;99564.50;4982000;28;45785;-69
2022/03/31 07:04:40;;;;;;;;;68.50;53.25;;;;;10.79;56.35;99570.47;4966943;28;45285;-68
2022/03/31 07:07:06;;;;;;;;;65.25;51.00;;;;;10.65;56.62;99552.50;4968596;28;45885;-69
2022/03/31 07:09:31;;;;;;;;;63.75;49.75;;;;;10.71;56.67;99573.56;4978512;28;45376;-70
2022/03/31 07:11:56;;;;;;;;;60.50;47.50;;;;;10.77;56.45;99564.34;4979718;28;45416;-69
2022/03/31 07:14:22;;;;;;;;;63.00;49.00;;;;;10.78;56.40;99559.91;4975617;28;45348;-69
2022/03/31 07:16:47;;;;;;;;;62.50;48.50;;;;;10.78;56.57;99546.56;4977340;28;45529;-69
2022/03/31 07:19:12;;;;;;;;;66.00;49.25;;;;;10.81;56.37;99554.38;4974572;28;47160;-70
2022/03/31 07:21:38;;;;;;;;;61.50;49.50;;;;;10.85;56.65;99551.47;4979985;28;45628;-69
2022/03/31 07:24:04;;;;;;;;;59.50;47.00;;;;;10.93;56.82;99570.63;4981307;28;45604;-70
2022/03/31 07:26:30;;;;;;;;;57.00;44.75;;;;;10.96;55.74;99563.38;4968926;28;45514;-69
2022/03/31 07:28:55;;;;;;;;;58.25;45.00;;;;;10.83;55.76;99561.38;4981060;28;46154;-70
2022/03/31 07:31:23;;;;;;;;;61.50;47.00;;;;;10.82;56.25;99572.13;4980146;28;45320;-70
2022/03/31 07:33:48;;;;;;;;;58.25;46.25;;;;;10.77;56.25;99567.03;4973073;28;45529;-69
2022/03/31 07:36:13;;;;;;;;;56.25;46.00;;;;;10.77;56.36;99566.16;4977877;28;45445;-70
2022/03/31 07:38:40;;;;;;;;;56.00;44.50;;;;;10.75;56.36;99577.78;4974936;28;45344;-69
2022/03/31 07:41:06;;;;;;;;;53.50;41.25;;;;;10.70;56.23;99582.50;4980572;28;45468;-70
2022/03/31 07:43:31;;;;;;;;;53.75;42.25;;;;;10.69;56.90;99583.47;4979312;28;45158;-70
2022/03/31 07:45:57;;;;;;;;;57.50;44.75;;;;;10.68;56.69;99580.88;4981066;28;45572;-70
2022/03/31 07:48:22;;;;;;;;;54.75;45.25;;;;;10.70;57.19;99586.97;4980725;28;45548;-70
2022/03/31 07:50:47;;;;;;;;;56.25;45.25;;;;;10.71;56.75;99581.56;4980023;28;45372;-69
2022/03/31 07:53:14;;;;;;;;;49.75;42.00;;;;;10.72;56.88;99579.75;4978783;28;45448;-69
2022/03/31 07:55:39;;;;;;;;;53.00;43.75;;;;;10.73;57.16;99574.34;4976478;28;45797;-69
2022/03/31 07:58:05;;;;;;;;;53.25;42.50;;;;;10.77;57.31;99571.50;4979320;28;45413;-69
2022/03/31 08:00:30;;;;;;;;;55.00;45.50;;;;;10.86;57.11;99576.34;4979466;28;45446;-69
2022/03/31 08:02:59;;;;;;;;;46.75;40.50;;;;;10.83;57.13;99574.72;4980563;28;45368;-69
2022/03/31 08:05:27;;;;;;;;;51.50;42.25;;;;;10.89;56.59;99579.75;4979912;28;45379;-70
2022/03/31 08:07:53;;;;;;;;;50.25;42.25;;;;;10.83;56.78;99574.72;4980252;28;46203;-69
2022/03/31 08:10:19;;;;;;;;;57.00;44.50;;;;;10.94;56.90;99590.16;4968313;28;45494;-70
2022/03/31 08:12:45;;;;;;;;;54.50;45.75;;;;;10.88;57.63;99578.00;4980240;28;45424;-70
2022/03/31 08:15:12;;;;;;;;;64.50;51.50;;;;;10.94;57.63;99585.72;4969773;28;45470;-70
2022/03/31 08:17:38;;;;;;;;;56.00;46.75;;;;;10.87;57.92;99586.94;4979398;28;45400;-69
2022/03/31 08:20:06;;;;;;;;;66.50;51.25;;;;;10.84;57.96;99591.59;4978999;28;45472;-69
2022/03/31 08:22:32;;;;;;;;;59.00;47.50;;;;;10.81;58.64;99599.75;4973707;28;45325;-69
2022/03/31 08:24:57;;;;;;;;;52.75;43.00;;;;;10.79;58.73;99604.31;4988796;28;45629;-69
2022/03/31 08:27:22;;;;;;;;;43.25;38.00;;;;;10.79;58.99;99609.66;4972081;28;45432;-69
2022/03/31 08:29:48;;;;;;;;;35.75;33.00;;;;;10.81;59.29;99615.78;4977707;28;46172;-69
2022/03/31 08:32:15;;;;;;;;;29.50;28.00;;;;;10.83;58.63;99622.78;4978925;28;45493;-69
2022/03/31 08:34:41;;;;;;;;;18.25;16.75;;;;;10.68;57.68;99629.75;4976835;28;45343;-69
2022/03/31 08:37:06;;;;;;;;;20.25;18.00;;;;;10.48;58.73;99622.75;4979504;28;45499;-69
2022/03/31 08:39:32;;;;;;;;;22.50;21.50;;;;;10.43;58.07;99639.94;4968178;28;45494;-69
2022/03/31 08:41:58;;;;;;;;;20.00;19.50;;;;;10.34;58.43;99651.91;4977855;28;45411;-69
2022/03/31 08:44:23;;;;;;;;;21.50;20.00;;;;;10.23;57.92;99651.56;4980038;28;45343;-69
2022/03/31 08:46:50;;;;;;;;;22.25;19.25;;;;;10.07;58.34;99659.41;4976230;28;46267;-70
2022/03/31 08:49:15;;;;;;;;;18.75;16.75;;;;;10.04;58.63;99665.78;4972337;28;45351;-69
2022/03/31 08:51:44;;;;;;;;;19.75;19.75;;;;;10.07;59.18;99670.06;4978502;28;45394;-69
2022/03/31 08:54:10;;;;;;;;;22.00;18.25;;;;;10.06;58.72;99669.22;4976481;28;45507;-69
2022/03/31 08:56:37;;;;;;;;;10.75;10.00;;;;;10.00;58.62;99681.03;4978911;28;45467;-69
2022/03/31 08:59:03;;;;;;;;;15.25;9.50;;;;;10.00;58.40;99693.50;4977377;28;45858;-69
2022/03/31 09:01:30;;;;;;;;;11.75;10.50;;;;;9.87;57.93;99689.66;4979048;28;45359;-69
2022/03/31 09:03:55;;;;;;;;;8.00;7.75;;;;;9.76;57.46;99679.53;4963243;28;45344;-69
2022/03/31 09:06:28;;;;;;;;;9.75;9.75;;;;;9.77;58.41;99684.78;4976521;28;46372;-70
2022/03/31 09:08:58;;;;;;;;;10.50;10.50;;;;;9.74;58.55;99695.56;4978609;28;45601;-67
2022/03/31 09:11:28;;;;;;;;;12.25;9.75;;;;;9.78;58.50;99721.13;4967006;28;45490;-69
2022/03/31 09:13:56;;;;;;;;;9.25;9.25;;;;;9.77;58.08;99721.22;4979427;28;45447;-69
2022/03/31 09:16:33;;;;;;;;;9.00;8.50;;;;;9.71;57.66;99718.84;4976372;28;45479;-69
2022/03/31 09:19:00;;;;;;;;;11.00;8.50;;;;;9.71;58.11;99718.84;4976968;28;45248;-70
2022/03/31 09:21:26;;;;;;;;;10.00;8.75;;;;;9.68;56.93;99729.63;4978307;28;45725;-69
2022/03/31 09:23:51;;;;;;;;;8.00;8.00;;;;;9.57;57.57;99743.41;4977987;28;45386;-70
2022/03/31 09:26:17;;;;;;;;;9.00;8.75;;;;;9.54;57.91;99744.44;4974079;28;45781;-69
2022/03/31 09:28:45;;;;;;;;;9.50;9.00;;;;;9.48;56.95;99747.34;4975544;28;45313;-69
2022/03/31 09:31:12;;;;;;;;;10.00;10.00;;;;;9.31;57.61;99737.44;4969921;28;45293;-69
2022/03/31 09:33:49;;;;;;;;;7.00;4.00;;;;;9.32;57.24;99741.84;4978946;28;45471;-69
2022/03/31 09:36:18;;;;;;;;;10.25;10.25;;;;;9.26;57.87;99748.28;4977113;28;45555;-70
2022/03/31 09:39:02;;;;;;;;;9.00;8.00;;;;;9.30;57.85;99758.81;4974548;28;45424;-70
2022/03/31 09:41:39;;;;;;;;;10.00;9.00;;;;;9.29;57.50;99768.59;4968499;28;45640;-70
2022/03/31 09:44:08;;;;;;;;;10.25;10.25;;;;;9.19;57.94;99767.28;4979049;28;45242;-70
2022/03/31 09:46:38;;;;;;;;;9.75;8.00;;;;;9.11;58.21;99764.06;4978448;28;45507;-70
2022/03/31 09:49:17;;;;;;;;;8.50;8.50;;;;;9.13;57.80;99781.69;4978889;28;45574;-70
2022/03/31 09:51:48;;;;;;;;;8.25;8.25;;;;;9.12;58.10;99774.66;4963938;28;45487;-70
2022/03/31 09:54:14;;;;;;;;;9.00;9.00;;;;;9.05;57.78;99765.16;4976911;28;45410;-70
2022/03/31 09:56:40;;;;;;;;;9.00;8.25;;;;;9.13;57.99;99780.81;4973551;28;46127;-69
2022/03/31 09:59:11;;;;;;;;;8.50;7.75;;;;;9.13;57.70;99776.34;4979135;28;45680;-69
2022/03/31 10:01:38;;;;;;;;;8.00;7.75;;;;;9.04;58.01;99769.63;4977644;28;45460;-69
2022/03/31 10:04:08;;;;;;;;;9.75;8.00;;;;;9.03;57.90;99764.38;4969447;28;45355;-69
2022/03/31 10:06:36;;;;;;;;;11.25;11.25;;;;;9.04;58.82;99772.28;4978588;28;46229;-70
2022/03/31 10:09:06;;;;;;;;;14.00;13.25;;;;;9.01;58.01;99776.88;4972060;28;45792;-70
2022/03/31 10:11:42;;;;;;;;;13.75;12.50;;;;;8.91;57.81;99776.38;4977469;28;45323;-71
2022/03/31 10:14:23;;;;;;;;;10.50;9.75;;;;;8.85;58.59;99772.19;4976567;28;45563;-69
2022/03/31 10:16:57;;;;;;;;;14.50;9.75;;;;;8.90;58.60;99783.50;4970508;28;46339;-71
2022/03/31 10:19:33;;;;;;;;;14.00;13.00;;;;;8.95;58.71;99788.63;4981426;28;45876;-69
2022/03/31 10:22:03;;;;;;;;;10.00;8.00;;;;;8.98;58.22;99795.63;4976338;28;45344;-68
2022/03/31 10:24:41;;;;;;;;;10.25;10.00;;;;;8.98;58.52;99793.81;4982314;28;45428;-69
2022/03/31 10:27:06;;;;;;;;;9.50;8.00;;;;;8.96;58.69;99792.19;4978969;28;45589;-69
2022/03/31 10:29:43;;;;;;;;;8.25;7.50;;;;;9.01;58.30;99791.03;4983528;28;45417;-69
2022/03/31 10:32:16;;;;;;;;;9.75;9.75;;;;;8.98;58.18;99790.31;4975056;28;45526;-69
2022/03/31 10:34:44;;;;;;;;;19.50;18.75;;;;;8.94;57.63;99800.22;4980732;28;45526;-69
2022/03/31 10:37:10;;;;;;;;;18.75;16.25;;;;;8.78;59.10;99799.97;4981226;28;45472;-69
2022/03/31 10:39:36;;;;;;;;;25.00;17.75;;;;;8.73;58.23;99790.44;4976712;28;45368;-71
2022/03/31 10:42:04;;;;;;;;;11.00;10.50;;;;;8.66;58.60;99774.72;4980880;28;45431;-69
2022/03/31 10:44:32;;;;;;;;;10.25;10.25;;;;;8.66;59.22;99780.03;4982911;28;45515;-69
2022/03/31 10:47:03;;;;;;;;;17.00;17.00;;;;;8.69;58.93;99785.25;4981658;28;46144;-71
2022/03/31 10:49:29;;;;;;;;;16.25;13.00;;;;;8.66;58.71;99779.19;4981331;28;45511;-69
2022/03/31 10:51:55;;;;;;;;;7.25;6.25;;;;;8.59;58.43;99780.34;4980574;28;45360;-69
2022/03/31 10:54:25;;;;;;;;;6.75;5.50;;;;;8.44;59.04;99780.03;4979237;28;45938;-70
2022/03/31 10:57:14;;;;;;;;;4.75;4.00;;;;;8.42;58.54;99778.31;4973520;28;46031;-69
2022/03/31 10:59:43;;;;;;;;;3.00;2.00;;;;;8.46;58.50;99769.31;4970048;28;45886;-71
2022/03/31 11:02:11;;;;;;;;;3.00;1.75;;;;;8.50;59.02;99776.25;4974161;28;45523;-71
2022/03/31 11:04:45;;;;;;;;;2.00;1.50;;;;;8.49;58.49;99779.84;4972835;28;45342;-70
2022/03/31 11:07:15;;;;;;;;;16.25;12.00;;;;;8.37;58.68;99770.53;4981164;28;46150;-70
2022/03/31 11:09:43;;;;;;;;;13.00;11.75;;;;;8.38;59.04;99766.06;4978431;28;45538;-70
2022/03/31 11:12:19;;;;;;;;;18.50;16.50;;;;;8.39;59.20;99775.78;4981998;28;45444;-69
2022/03/31 11:14:58;;;;;;;;;6.75;6.75;;;;;8.40;59.31;99777.50;4980622;28;45405;-71
2022/03/31 11:17:25;;;;;;;;;5.00;3.50;;;;;8.41;59.48;99788.09;4981377;28;45490;-69
2022/03/31 11:19:51;;;;;;;;;5.00;3.50;;;;;8.41;59.71;99779.25;4981548;28;45749;-69
2022/03/31 11:22:20;;;;;;;;;2.00;2.00;;;;;8.47;59.18;99785.22;4980889;28;45336;-69
2022/03/31 11:24:46;;;;;;;;;2.00;2.00;;;;;8.56;58.78;99796.44;4981414;28;45254;-70